If you wish to contribute or participate in the discussions about articles you are invited to join SKYbrary as a registered user

 Actions

Ben Schoeman Airport

From SKYbrary Wiki

FAEL
Airport
ICAO: FAEL – IATA: ELS
Summary
Name Ben Schoeman Airport
Region Africa
Territory South Africa ZA.gif
Location , Eastern Cape
Serving East London
Elevation 132.588 m
435 ft
435 ft132.588 m
Coordinates 33° 2' 8.05" S, 27° 49' 33.38" E
Runways
Designator Length Width Surface ROPS
6/24 1585 m5,200.131 ft
46 m150.919 ft
ASP yes/yes
11/29 1939 m6,361.549 ft
46 m150.919 ft
ASP yes/yes


METAR
Observation FAEL 250800Z 22011KT 190V250 9999 SCT020 25/20 Q1015
Station East London, East London Airport
Date/Time 25 March 2019 08:00:00
Wind direction 220°
Wind speed 11 kts
Lowest cloud amount scattered clouds
Temperature 25°C
Dew point 20°C
Humidity 73%
QNH 1015 hPa
Weather condition n/a